Laporte City, Iowa
Current Conditions -  °F | °C
As of 4:35 PM on Monday 22 Dec 2014 (Local Time) from KVTI Reporting Station
Haze Haze  
Wind Chill: 30°   Ceiling: 400
Heat Index: 38°   Visibility: 3mi
Dew Point: 36°   Wind: 12mph
Humidity: 93%   Direction: 110°ESE
Pressure: 29.54"   Gusts: NA
Location:  42.3312°N, 92.2426°W
Report Text: KVTI 222235Z AUTO 11010KT 3SM BR OVC004 03/02 A2954 RMK AO2 T00310020
Loading
Personal Weather Stations






























Interactive Weather Map New forecast layout! Learn more

10-Day Weather Forecast

Advertisements
Track Severe Weather on mobile